EHGG/GRQ METAR and TAF weather

Enter ICAO airport designator
Station Type Date Time Source
EHGG METAR 2020/04/09 19:55 UTC NOAA

EHGG 091955Z AUTO 04008KT 9999 NSC 07/03 Q1028 NOSIG


Station Type Date Time Source
EHGG Decoded METAR 2020/04/09 19:55 UTC NOAA

Groningen Airport Eelde, Netherlands (EHGG) 53-08N 006-35E 4M
Apr 09, 2020 - 03:55 PM EDT / 2020.04.09 1955 UTC
Wind: from the NE (040 degrees) at 9 MPH (8 KT):0
Visibility: greater than 7 mile(s):0
Temperature: 44 F (7 C)
Dew Point: 37 F (3 C)
Relative Humidity: 75%
Pressure (altimeter): 30.36 in. Hg (1028 hPa)
ob: EHGG 091955Z AUTO 04008KT 9999 NSC 07/03 Q1028 NOSIG
cycle: 20

Station Type Date Time Source
EHGG TAF 2020/04/09 18:30 UTC NOAA

TAF EHGG 091717Z 0918/1024 03010KT CAVOK
BECMG 0923/1002 06005KT 6000 MIFG PROB30
TEMPO 1002/1006 1500 BCFG
BECMG 1006/1008 CAVOK

Example: see airport list